NCAR-RAP Real-Time Weather Data

Output produced by METARs form (17 September 2019  16:30 UTC)
found at http://weather.rap.ucar.edu/surface/
 
KTOP 171553Z 21007KT 10SM CLR 29/20 A3003 RMK AO2 SLP161 T02890200
KTOP 171453Z 15007KT 10SM CLR 26/21 A3003 RMK AO2 SLP160 T02610206 51005
KTOP 171353Z 14004KT 10SM CLR 24/21 A3003 RMK AO2 SLP158 T02440206
KTOP 171253Z 00000KT 9SM CLR 22/20 A3003 RMK AO2 SLP159 T02220200
KTOP 171153Z 11004KT 9SM CLR 21/19 A3001 RMK AO2 SLP154 T02110194 10233 20206 53002
KTOP 171053Z AUTO 00000KT 4SM BR CLR 21/20 A3001 RMK AO2 SLP151 T02110200
KTOP 170953Z AUTO 00000KT 9SM CLR 21/19 A3001 RMK AO2 SLP151 T02110194
KTOP 170853Z AUTO 00000KT 8SM CLR 22/20 A3001 RMK AO2 SLP152 T02170200 58000
KTOP 170753Z AUTO 12003KT 10SM CLR 23/21 A3001 RMK AO2 SLP153 T02330206
KTOP 170653Z AUTO 10003KT 10SM CLR 23/20 A3001 RMK AO2 SLP153 T02280200
KTOP 170553Z AUTO 12003KT 10SM CLR 23/20 A3001 RMK AO2 SLP152 T02280200 10300 20222 403330211 50000
KTOP 170453Z AUTO 14004KT 10SM CLR 24/21 A3002 RMK AO2 SLP155 T02390206
KTOP 170353Z AUTO 13003KT 10SM CLR 24/21 A3002 RMK AO2 SLP154 T02390206
KTOP 170253Z AUTO 12004KT 10SM CLR 25/21 A3001 RMK AO2 SLP152 T02500211 53006
KTOP 170053Z AUTO 11005KT 10SM CLR 27/22 A2999 RMK AO2 SLP146 T02720217
KTOP 162353Z 14005KT 10SM CLR 30/21 A2999 RMK AO2 SLP147 T03000211 10333 20300 56006
KTOP 162253Z 16008KT 10SM CLR 32/21 A2999 RMK AO2 SLP146 T03170206
KTOP 162153Z 16011KT 10SM CLR 32/20 A3000 RMK AO2 SLP147 T03220200
KTOP 162053Z 18006KT 10SM CLR 32/21 A3001 RMK AO2 SLP152 T03170206 56017
KTOP 161953Z 18010KT 10SM CLR 33/20 A3002 RMK AO2 SLP154 T03330200